Time;durP1;ratioP1;P1;durP2;ratioP2;P2;SDS_P1;SDS_P2;PMS_P1;PMS_P2;Temp;Humidity;BMP_temperature;BMP_pressure;BME280_temperature;BME280_humidity;BME280_pressure;Samples;Min_cycle;Max_cycle;Signal;HPM_P1;HPM_P2
2022/07/29 00:00:50;;;;;;;8.38;1.67;;;;;;;;;;5034959;28;20356;-72
2022/07/29 00:03:16;;;;;;;8.73;1.70;;;;;;;;;;5034797;28;20044;-72
2022/07/29 00:05:41;;;;;;;7.07;2.03;;;;;;;;;;5035166;28;20282;-72
2022/07/29 00:08:08;;;;;;;4.70;1.33;;;;;;;;;;5034676;28;20259;-72
2022/07/29 00:10:34;;;;;;;4.35;1.63;;;;;;;;;;5035004;28;20029;-71
2022/07/29 00:12:59;;;;;;;11.02;1.58;;;;;;;;;;5034587;28;20071;-71
2022/07/29 00:15:25;;;;;;;7.07;1.70;;;;;;;;;;5017232;28;20033;-72
2022/07/29 00:17:50;;;;;;;11.60;1.73;;;;;;;;;;5036252;28;20041;-71
2022/07/29 00:20:16;;;;;;;8.20;1.92;;;;;;;;;;5036597;28;20170;-72
2022/07/29 00:22:41;;;;;;;4.60;1.70;;;;;;;;;;5036066;28;20037;-72
2022/07/29 00:25:07;;;;;;;5.67;1.80;;;;;;;;;;5017923;28;20548;-71
2022/07/29 00:27:34;;;;;;;9.88;2.10;;;;;;;;;;5036625;28;20258;-73
2022/07/29 00:29:59;;;;;;;5.25;1.90;;;;;;;;;;5036791;28;20033;-72
2022/07/29 00:32:24;;;;;;;4.20;1.70;;;;;;;;;;5037131;28;20390;-71
2022/07/29 00:37:34;;;;;;;2.95;1.60;;;;;;;;;;5036724;28;20510;-71
2022/07/29 00:39:59;;;;;;;9.03;1.87;;;;;;;;;;5036262;28;20057;-72
2022/07/29 00:42:24;;;;;;;5.20;1.97;;;;;;;;;;5035189;28;20320;-72
2022/07/29 00:44:49;;;;;;;5.20;2.20;;;;;;;;;;5016677;28;20274;-72
2022/07/29 00:47:15;;;;;;;5.73;2.20;;;;;;;;;;5034395;28;20390;-72
2022/07/29 00:49:41;;;;;;;18.45;2.65;;;;;;;;;;5034483;28;20365;-71
2022/07/29 00:52:09;;;;;;;8.90;2.55;;;;;;;;;;5016284;28;20454;-72
2022/07/29 00:54:35;;;;;;;6.20;2.55;;;;;;;;;;5034264;28;20029;-72
2022/07/29 00:57:01;;;;;;;8.45;2.30;;;;;;;;;;5016226;28;20558;-73
2022/07/29 00:59:27;;;;;;;6.72;2.92;;;;;;;;;;5033826;28;20068;-72
2022/07/29 01:01:53;;;;;;;10.05;2.42;;;;;;;;;;5034013;28;20029;-72
2022/07/29 01:04:19;;;;;;;11.05;2.80;;;;;;;;;;5033839;28;20022;-72
2022/07/29 01:06:45;;;;;;;8.55;2.92;;;;;;;;;;5033690;28;20544;-71
2022/07/29 01:09:10;;;;;;;9.07;3.00;;;;;;;;;;5033706;28;20048;-72
2022/07/29 01:11:37;;;;;;;7.68;2.85;;;;;;;;;;5016097;28;20399;-72
2022/07/29 01:14:03;;;;;;;9.35;3.20;;;;;;;;;;5033579;28;20026;-70
2022/07/29 01:16:32;;;;;;;9.43;3.25;;;;;;;;;;5033503;28;20022;-72
2022/07/29 01:19:12;;;;;;;7.50;3.72;;;;;;;;;;5015799;28;20032;-72
2022/07/29 01:21:52;;;;;;;11.75;3.80;;;;;;;;;;5033528;28;20025;-71
2022/07/29 01:24:33;;;;;;;8.48;4.25;;;;;;;;;;5033434;28;20029;-72
2022/07/29 01:27:09;;;;;;;10.23;4.57;;;;;;;;;;5033542;28;20032;-71
2022/07/29 01:29:55;;;;;;;11.90;4.88;;;;;;;;;;5033437;28;20498;-72
2022/07/29 01:32:24;;;;;;;13.60;5.30;;;;;;;;;;5033214;28;20032;-71
2022/07/29 01:35:23;;;;;;;14.77;6.38;;;;;;;;;;5033532;28;20024;-72
2022/07/29 01:37:58;;;;;;;15.38;7.15;;;;;;;;;;5015676;28;20040;-71
2022/07/29 01:40:33;;;;;;;20.73;9.57;;;;;;;;;;5033399;28;20032;-71
2022/07/29 01:43:05;;;;;;;20.70;11.13;;;;;;;;;;5033701;28;20056;-70
2022/07/29 01:45:39;;;;;;;24.30;11.82;;;;;;;;;;5033463;28;20112;-72
2022/07/29 01:48:28;;;;;;;21.45;11.23;;;;;;;;;;5033361;28;20108;-71
2022/07/29 01:51:00;;;;;;;23.80;11.52;;;;;;;;;;5033645;28;20052;-71
2022/07/29 01:53:34;;;;;;;23.27;11.90;;;;;;;;;;5033170;28;20033;-71
2022/07/29 01:56:01;;;;;;;30.40;11.82;;;;;;;;;;5033849;28;20029;-72
2022/07/29 01:58:29;;;;;;;19.90;11.55;;;;;;;;;;5033231;28;20044;-71
2022/07/29 02:00:57;;;;;;;26.52;12.45;;;;;;;;;;5033383;28;20032;-72
2022/07/29 02:03:23;;;;;;;26.98;12.23;;;;;;;;;;5033377;28;20052;-72
2022/07/29 02:05:50;;;;;;;26.88;12.18;;;;;;;;;;5034888;28;20471;-72
2022/07/29 02:08:18;;;;;;;20.95;10.43;;;;;;;;;;5037225;28;20065;-70
2022/07/29 02:10:45;;;;;;;25.98;11.27;;;;;;;;;;5036815;28;20017;-72
2022/07/29 02:13:12;;;;;;;20.00;10.18;;;;;;;;;;5036642;28;20080;-70
2022/07/29 02:15:39;;;;;;;23.92;10.23;;;;;;;;;;5036710;28;20022;-71
2022/07/29 02:18:24;;;;;;;22.55;10.07;;;;;;;;;;5036945;28;20080;-71
2022/07/29 02:20:53;;;;;;;23.05;10.65;;;;;;;;;;5036567;28;20033;-72
2022/07/29 02:23:21;;;;;;;21.27;11.30;;;;;;;;;;5036862;28;20378;-72
2022/07/29 02:25:50;;;;;;;23.13;11.43;;;;;;;;;;5036458;28;20033;-71
2022/07/29 02:28:19;;;;;;;27.52;11.95;;;;;;;;;;5019904;28;20060;-72
2022/07/29 02:30:47;;;;;;;23.90;12.73;;;;;;;;;;5020371;28;20075;-71
2022/07/29 02:33:15;;;;;;;22.30;11.73;;;;;;;;;;5037750;28;20116;-71
2022/07/29 02:35:42;;;;;;;22.88;12.23;;;;;;;;;;5036850;28;20029;-71
2022/07/29 02:40:58;;;;;;;24.10;11.80;;;;;;;;;;5036446;28;20117;-70
2022/07/29 02:43:25;;;;;;;31.70;12.68;;;;;;;;;;5036373;28;20053;-72
2022/07/29 02:45:54;;;;;;;19.45;10.93;;;;;;;;;;5036405;28;20032;-72
2022/07/29 02:48:27;;;;;;;22.50;10.45;;;;;;;;;;5036408;28;20021;-71
2022/07/29 02:50:59;;;;;;;22.10;10.65;;;;;;;;;;5035988;28;20033;-72
2022/07/29 02:53:26;;;;;;;20.25;10.15;;;;;;;;;;5036122;28;20447;-72
2022/07/29 02:55:58;;;;;;;15.57;8.48;;;;;;;;;;5035944;28;20151;-72
2022/07/29 02:58:31;;;;;;;17.30;8.80;;;;;;;;;;5036035;28;20053;-72
2022/07/29 03:01:00;;;;;;;18.53;9.03;;;;;;;;;;5036173;28;20033;-71
2022/07/29 03:03:30;;;;;;;18.13;9.80;;;;;;;;;;5035856;28;20029;-72
2022/07/29 03:05:56;;;;;;;24.40;12.30;;;;;;;;;;5035694;28;20017;-71
2022/07/29 03:08:22;;;;;;;26.65;13.88;;;;;;;;;;5035761;28;20033;-71
2022/07/29 03:10:48;;;;;;;23.77;12.85;;;;;;;;;;5035924;28;20447;-72
2022/07/29 03:13:14;;;;;;;28.35;13.88;;;;;;;;;;5035597;28;20041;-71
2022/07/29 03:15:41;;;;;;;24.95;14.55;;;;;;;;;;5017808;28;20022;-71
2022/07/29 03:18:08;;;;;;;30.38;14.95;;;;;;;;;;5034401;28;20029;-71
2022/07/29 03:20:33;;;;;;;32.15;15.70;;;;;;;;;;5035600;28;20448;-70
2022/07/29 03:22:58;;;;;;;34.17;15.55;;;;;;;;;;5035686;28;20029;-72
2022/07/29 03:25:23;;;;;;;26.98;15.50;;;;;;;;;;5035580;28;20036;-70
2022/07/29 03:27:49;;;;;;;34.10;14.43;;;;;;;;;;5017654;28;20025;-71
2022/07/29 03:30:15;;;;;;;22.80;12.75;;;;;;;;;;5035643;28;20313;-71
2022/07/29 03:32:41;;;;;;;24.20;12.40;;;;;;;;;;5017610;28;20112;-72
2022/07/29 03:35:07;;;;;;;27.63;12.52;;;;;;;;;;5035412;28;20129;-72
2022/07/29 03:37:33;;;;;;;22.67;11.35;;;;;;;;;;5035190;28;20065;-72
2022/07/29 03:40:01;;;;;;;25.45;11.98;;;;;;;;;;5035459;28;20072;-72
2022/07/29 03:42:32;;;;;;;23.77;10.40;;;;;;;;;;5017051;28;20159;-72
2022/07/29 03:44:59;;;;;;;22.40;10.63;;;;;;;;;;5035058;28;20033;-72
2022/07/29 03:47:28;;;;;;;23.08;10.27;;;;;;;;;;5035300;28;20025;-71
2022/07/29 03:49:59;;;;;;;18.50;10.48;;;;;;;;;;5017126;28;20103;-71
2022/07/29 03:52:25;;;;;;;19.02;10.82;;;;;;;;;;5034872;28;20029;-72
2022/07/29 03:54:50;;;;;;;22.23;11.20;;;;;;;;;;5034809;28;20021;-71
2022/07/29 03:57:22;;;;;;;23.98;11.63;;;;;;;;;;5034778;28;20028;-72
2022/07/29 03:59:48;;;;;;;25.20;11.07;;;;;;;;;;5017441;28;20056;-71
2022/07/29 04:02:13;;;;;;;25.52;10.90;;;;;;;;;;5034659;28;20041;-72
2022/07/29 04:04:38;;;;;;;21.60;11.60;;;;;;;;;;5034620;28;20080;-72
2022/07/29 04:07:04;;;;;;;18.83;10.52;;;;;;;;;;5034806;28;20021;-71
2022/07/29 04:09:30;;;;;;;20.70;9.77;;;;;;;;;;5034740;28;20025;-71
2022/07/29 04:11:55;;;;;;;22.42;10.15;;;;;;;;;;5034464;28;20426;-71
2022/07/29 04:14:20;;;;;;;24.08;10.30;;;;;;;;;;5034742;28;20021;-72
2022/07/29 04:16:46;;;;;;;23.02;10.88;;;;;;;;;;5034384;28;20104;-71
2022/07/29 04:19:11;;;;;;;21.77;10.85;;;;;;;;;;5016644;28;20025;-71
2022/07/29 04:21:38;;;;;;;22.13;10.70;;;;;;;;;;5034229;28;20069;-71
2022/07/29 04:24:03;;;;;;;23.95;11.10;;;;;;;;;;5034257;28;20270;-72
2022/07/29 04:26:29;;;;;;;21.92;11.05;;;;;;;;;;5034230;28;20028;-72
2022/07/29 04:28:54;;;;;;;25.87;10.70;;;;;;;;;;5033774;28;20502;-73
2022/07/29 04:31:19;;;;;;;23.00;12.13;;;;;;;;;;5034536;28;20752;-72
2022/07/29 04:33:44;;;;;;;24.90;11.35;;;;;;;;;;5034340;28;20732;-72
2022/07/29 04:36:10;;;;;;;24.73;11.33;;;;;;;;;;5034331;28;20041;-73
2022/07/29 04:38:36;;;;;;;24.55;11.23;;;;;;;;;;5016245;28;20267;-72
2022/07/29 04:41:01;;;;;;;18.40;10.60;;;;;;;;;;5033966;28;20502;-72
2022/07/29 04:43:27;;;;;;;21.02;11.45;;;;;;;;;;5034196;28;20479;-71
2022/07/29 04:45:52;;;;;;;25.77;11.97;;;;;;;;;;5034015;28;20041;-72
2022/07/29 04:48:17;;;;;;;20.13;10.70;;;;;;;;;;5016060;28;20255;-71
2022/07/29 04:50:44;;;;;;;21.50;10.23;;;;;;;;;;5034257;28;20028;-72
2022/07/29 04:53:09;;;;;;;18.92;10.35;;;;;;;;;;5033704;28;20297;-72
2022/07/29 04:55:34;;;;;;;19.93;9.83;;;;;;;;;;5033833;28;20025;-72
2022/07/29 04:58:00;;;;;;;18.35;9.48;;;;;;;;;;5021623;28;20255;-80
2022/07/29 05:00:25;;;;;;;20.48;9.60;;;;;;;;;;5025270;28;20021;-82
2022/07/29 05:02:50;;;;;;;21.58;9.43;;;;;;;;;;5041291;28;20033;-79
2022/07/29 05:05:15;;;;;;;22.23;10.17;;;;;;;;;;5023845;28;20120;-81
2022/07/29 05:07:42;;;;;;;17.15;9.40;;;;;;;;;;5040333;28;20778;-80
2022/07/29 05:10:08;;;;;;;27.77;10.27;;;;;;;;;;5040980;28;20029;-80
2022/07/29 05:12:33;;;;;;;20.48;9.02;;;;;;;;;;5040598;28;20258;-78
2022/07/29 05:14:59;;;;;;;26.85;9.68;;;;;;;;;;5040087;28;20025;-79
2022/07/29 05:17:24;;;;;;;22.55;9.45;;;;;;;;;;5040267;28;20025;-77
2022/07/29 05:19:51;;;;;;;24.33;10.50;;;;;;;;;;5022146;28;20029;-80
2022/07/29 05:22:17;;;;;;;21.20;10.50;;;;;;;;;;5039786;28;20029;-80
2022/07/29 05:24:42;;;;;;;24.15;10.75;;;;;;;;;;5040374;28;20025;-80
2022/07/29 05:27:08;;;;;;;22.90;11.80;;;;;;;;;;5039533;28;20398;-80
2022/07/29 05:29:33;;;;;;;29.33;14.63;;;;;;;;;;5021261;28;20258;-81
2022/07/29 05:31:58;;;;;;;28.87;14.20;;;;;;;;;;5039441;28;20279;-81
2022/07/29 05:34:24;;;;;;;35.28;16.88;;;;;;;;;;5039457;28;20255;-79
2022/07/29 05:36:50;;;;;;;33.30;16.75;;;;;;;;;;5039038;28;20025;-79
2022/07/29 05:39:15;;;;;;;36.13;17.27;;;;;;;;;;5021059;28;20379;-79
2022/07/29 05:41:41;;;;;;;33.92;17.17;;;;;;;;;;5037643;28;20037;-78
2022/07/29 05:44:08;;;;;;;35.07;18.63;;;;;;;;;;5039281;28;20060;-78
2022/07/29 05:46:34;;;;;;;37.03;17.98;;;;;;;;;;5020972;28;20636;-79
2022/07/29 05:48:59;;;;;;;49.97;19.27;;;;;;;;;;5021871;28;20083;-82
2022/07/29 05:51:24;;;;;;;50.17;19.50;;;;;;;;;;5039238;28;20025;-78
2022/07/29 05:53:50;;;;;;;33.37;18.27;;;;;;;;;;5039314;28;20258;-79
2022/07/29 05:56:15;;;;;;;38.63;18.93;;;;;;;;;;5038246;28;20266;-79
2022/07/29 05:58:41;;;;;;;32.72;18.38;;;;;;;;;;5038788;28;20263;-79
2022/07/29 06:01:06;;;;;;;37.83;19.27;;;;;;;;;;5038937;28;20120;-80
2022/07/29 06:03:31;;;;;;;32.37;17.57;;;;;;;;;;5039134;28;20025;-80
2022/07/29 06:05:56;;;;;;;37.33;15.87;;;;;;;;;;5021803;28;20282;-80
2022/07/29 06:08:22;;;;;;;37.83;14.93;;;;;;;;;;5038772;28;20257;-80
2022/07/29 06:10:47;;;;;;;32.75;15.48;;;;;;;;;;5038237;28;20767;-80
2022/07/29 06:13:12;;;;;;;30.17;15.25;;;;;;;;;;5038246;28;20029;-81
2022/07/29 06:15:38;;;;;;;33.78;15.32;;;;;;;;;;5037653;28;20025;-79
2022/07/29 06:18:03;;;;;;;32.13;15.00;;;;;;;;;;5019239;28;20124;-80
2022/07/29 06:20:29;;;;;;;29.63;15.60;;;;;;;;;;5037785;28;20029;-78
2022/07/29 06:22:55;;;;;;;34.63;14.93;;;;;;;;;;5036774;28;20108;-79
2022/07/29 06:25:20;;;;;;;26.83;14.98;;;;;;;;;;5037759;28;20515;-79
2022/07/29 06:27:46;;;;;;;26.65;14.90;;;;;;;;;;5036927;28;20120;-80
2022/07/29 06:30:11;;;;;;;32.27;14.80;;;;;;;;;;5036098;28;20028;-80
2022/07/29 06:32:37;;;;;;;33.15;14.80;;;;;;;;;;5035266;28;20732;-78
2022/07/29 06:35:03;;;;;;;33.87;14.73;;;;;;;;;;5034635;28;20061;-79
2022/07/29 06:37:28;;;;;;;29.67;13.63;;;;;;;;;;5035070;28;20271;-79
2022/07/29 06:40:59;;;;;;;30.23;14.38;;;;;;;;;;5034884;28;20044;-81
2022/07/29 06:42:42;;;;;;;31.98;14.38;;;;;;;;;;5035128;28;20402;-80
2022/07/29 06:45:08;;;;;;;32.90;15.13;;;;;;;;;;5034964;28;20109;-82
2022/07/29 06:47:33;;;;;;;30.88;14.15;;;;;;;;;;5016786;28;20472;-78
2022/07/29 06:49:59;;;;;;;23.52;14.13;;;;;;;;;;5034722;28;20474;-79
2022/07/29 06:52:25;;;;;;;25.60;12.90;;;;;;;;;;5037494;28;20025;-80
2022/07/29 06:54:50;;;;;;;26.30;13.85;;;;;;;;;;5020300;28;20494;-80
2022/07/29 06:57:15;;;;;;;33.77;13.63;;;;;;;;;;5038221;28;20076;-78
2022/07/29 06:59:40;;;;;;;29.60;14.23;;;;;;;;;;5038324;28;20334;-80
2022/07/29 07:02:06;;;;;;;32.33;13.98;;;;;;;;;;5038603;28;20647;-80
2022/07/29 07:04:31;;;;;;;24.70;14.30;;;;;;;;;;5039389;28;20116;-81
2022/07/29 07:06:57;;;;;;;28.05;13.57;;;;;;;;;;5038207;28;20029;-78
2022/07/29 07:09:22;;;;;;;31.25;14.52;;;;;;;;;;5021020;28;20025;-81
2022/07/29 07:11:48;;;;;;;27.70;13.30;;;;;;;;;;5039676;28;20029;-79
2022/07/29 07:14:13;;;;;;;28.65;13.30;;;;;;;;;;5040828;28;20298;-81
2022/07/29 07:16:38;;;;;;;20.45;12.52;;;;;;;;;;5040590;28;20108;-79
2022/07/29 07:19:04;;;;;;;22.83;13.00;;;;;;;;;;5041105;28;20071;-79
2022/07/29 07:21:29;;;;;;;22.52;12.45;;;;;;;;;;5040502;28;20060;-79
2022/07/29 07:23:54;;;;;;;34.42;12.25;;;;;;;;;;5040610;28;20030;-80
2022/07/29 07:26:20;;;;;;;26.45;11.73;;;;;;;;;;5040036;28;20025;-80
2022/07/29 07:28:45;;;;;;;21.75;11.60;;;;;;;;;;5040233;28;20021;-79
2022/07/29 07:31:11;;;;;;;27.52;12.15;;;;;;;;;;5040262;28;20036;-80
2022/07/29 07:33:36;;;;;;;31.17;11.43;;;;;;;;;;5022156;28;20029;-80
2022/07/29 07:36:04;;;;;;;24.60;11.75;;;;;;;;;;5042193;28;20025;-82
2022/07/29 07:38:30;;;;;;;30.50;11.93;;;;;;;;;;5041954;28;20032;-78
2022/07/29 07:40:55;;;;;;;21.23;11.23;;;;;;;;;;5041967;28;20029;-79
2022/07/29 07:43:21;;;;;;;21.47;11.13;;;;;;;;;;5039391;28;20290;-78
2022/07/29 07:45:46;;;;;;;30.55;11.73;;;;;;;;;;5039427;28;20278;-80
2022/07/29 07:48:12;;;;;;;26.77;10.43;;;;;;;;;;5038394;28;20029;-81
2022/07/29 07:50:37;;;;;;;27.37;10.87;;;;;;;;;;5039472;28;20290;-81
2022/07/29 07:53:02;;;;;;;28.45;10.98;;;;;;;;;;5022958;28;20246;-83
2022/07/29 07:55:27;;;;;;;26.20;10.93;;;;;;;;;;5040553;28;20029;-79
2022/07/29 07:57:54;;;;;;;23.77;11.00;;;;;;;;;;5041426;28;20486;-80
2022/07/29 08:00:20;;;;;;;20.02;10.82;;;;;;;;;;5042799;28;20052;-82
2022/07/29 08:02:46;;;;;;;18.05;10.70;;;;;;;;;;5042298;28;20067;-82
2022/07/29 08:05:15;;;;;;;21.83;11.50;;;;;;;;;;5042039;28;20026;-79
2022/07/29 08:07:40;;;;;;;28.80;10.40;;;;;;;;;;5044567;28;20346;-80
2022/07/29 08:10:07;;;;;;;23.23;10.50;;;;;;;;;;5042528;28;20063;-82
2022/07/29 08:12:32;;;;;;;20.42;9.50;;;;;;;;;;5045234;28;20254;-79
2022/07/29 08:14:57;;;;;;;25.53;9.60;;;;;;;;;;5026016;28;20079;-80
2022/07/29 08:17:22;;;;;;;20.83;9.37;;;;;;;;;;5040459;28;20259;-81
2022/07/29 08:19:48;;;;;;;23.25;9.20;;;;;;;;;;5024930;28;20342;-82
2022/07/29 08:22:13;;;;;;;25.20;9.17;;;;;;;;;;5042669;28;20027;-80
2022/07/29 08:27:33;;;;;;;20.02;7.97;;;;;;;;;;5034133;28;20029;-81
2022/07/29 08:29:58;;;;;;;29.17;8.03;;;;;;;;;;5042371;28;20036;-82
2022/07/29 08:32:24;;;;;;;21.73;8.13;;;;;;;;;;5041922;28;20266;-83
2022/07/29 08:34:49;;;;;;;17.17;7.35;;;;;;;;;;5039668;28;20290;-80
2022/07/29 08:37:14;;;;;;;15.50;7.20;;;;;;;;;;5041980;28;20066;-81
2022/07/29 08:39:39;;;;;;;20.67;7.90;;;;;;;;;;5040010;28;20740;-81
2022/07/29 08:42:05;;;;;;;18.50;6.95;;;;;;;;;;5041046;28;20029;-81
2022/07/29 08:44:31;;;;;;;21.48;7.90;;;;;;;;;;5040362;28;20505;-80
2022/07/29 08:46:56;;;;;;;19.70;7.05;;;;;;;;;;5044964;28;20036;-81
2022/07/29 08:49:22;;;;;;;28.30;8.15;;;;;;;;;;5029810;28;20022;-81
2022/07/29 08:51:47;;;;;;;21.17;7.30;;;;;;;;;;5043008;28;20029;-81
2022/07/29 08:54:17;;;;;;;16.92;7.40;;;;;;;;;;5044687;28;20041;-81
2022/07/29 08:56:42;;;;;;;18.38;7.75;;;;;;;;;;5043057;28;20398;-81
2022/07/29 08:59:09;;;;;;;21.15;7.57;;;;;;;;;;5041959;28;20032;-82
2022/07/29 09:01:37;;;;;;;15.38;7.07;;;;;;;;;;5040168;28;20437;-81
2022/07/29 09:04:05;;;;;;;16.38;7.95;;;;;;;;;;5043972;28;20025;-80
2022/07/29 09:06:33;;;;;;;17.23;7.38;;;;;;;;;;5043502;28;20093;-81
2022/07/29 09:08:59;;;;;;;16.83;7.68;;;;;;;;;;5044163;28;20087;-80
2022/07/29 09:11:24;;;;;;;18.73;7.60;;;;;;;;;;5043341;28;20060;-80
2022/07/29 09:13:50;;;;;;;17.13;7.85;;;;;;;;;;5044051;28;20021;-78
2022/07/29 09:16:15;;;;;;;16.60;7.60;;;;;;;;;;5044044;28;20032;-80
2022/07/29 09:18:42;;;;;;;18.10;7.75;;;;;;;;;;5042631;28;20021;-79
2022/07/29 09:24:04;;;;;;;19.60;7.63;;;;;;;;;;5037701;28;20044;-82
2022/07/29 09:26:31;;;;;;;15.45;7.38;;;;;;;;;;5021098;28;20029;-81
2022/07/29 09:28:57;;;;;;;14.10;7.20;;;;;;;;;;5020750;28;20029;-80
2022/07/29 09:31:33;;;;;;;17.65;7.00;;;;;;;;;;5039421;28;20037;-79
2022/07/29 09:34:00;;;;;;;16.00;8.00;;;;;;;;;;5039379;28;20065;-81
2022/07/29 09:36:25;;;;;;;15.32;7.63;;;;;;;;;;5039186;28;20483;-81
2022/07/29 09:39:00;;;;;;;16.23;7.60;;;;;;;;;;5022162;28;20041;-80
2022/07/29 09:41:27;;;;;;;20.02;7.95;;;;;;;;;;5039450;28;20033;-80
2022/07/29 09:43:56;;;;;;;16.63;8.10;;;;;;;;;;5041064;28;20039;-81
2022/07/29 09:46:21;;;;;;;11.15;6.78;;;;;;;;;;5021993;28;20017;-80
2022/07/29 09:49:06;;;;;;;18.67;7.80;;;;;;;;;;5039098;28;20030;-78
2022/07/29 09:51:31;;;;;;;14.40;7.03;;;;;;;;;;5021186;28;20029;-79
2022/07/29 09:53:57;;;;;;;17.57;9.20;;;;;;;;;;5039105;28;20499;-81
2022/07/29 09:56:39;;;;;;;18.80;8.77;;;;;;;;;;5022328;28;20025;-80
2022/07/29 09:59:08;;;;;;;18.77;8.88;;;;;;;;;;5020914;28;20032;-81
2022/07/29 10:01:35;;;;;;;21.05;8.30;;;;;;;;;;5039242;28;20022;-81
2022/07/29 10:04:02;;;;;;;15.52;8.27;;;;;;;;;;5043175;28;20056;-83
2022/07/29 10:06:27;;;;;;;14.57;7.97;;;;;;;;;;5042823;28;20036;-82
2022/07/29 10:08:53;;;;;;;13.83;7.80;;;;;;;;;;5041707;28;20491;-81
2022/07/29 10:11:19;;;;;;;12.48;6.60;;;;;;;;;;5041244;28;20265;-80
2022/07/29 10:13:47;;;;;;;13.35;6.25;;;;;;;;;;5040023;28;20030;-81
2022/07/29 10:16:13;;;;;;;10.93;5.47;;;;;;;;;;5043283;28;20017;-80
2022/07/29 10:18:39;;;;;;;13.60;6.10;;;;;;;;;;5041030;28;20021;-79
2022/07/29 10:21:05;;;;;;;9.63;5.10;;;;;;;;;;5041061;28;20022;-81
2022/07/29 10:23:31;;;;;;;8.13;4.70;;;;;;;;;;5038885;28;20034;-78
2022/07/29 10:25:57;;;;;;;10.82;4.72;;;;;;;;;;5040974;28;20035;-80
2022/07/29 10:28:23;;;;;;;12.82;4.65;;;;;;;;;;5044548;28;20061;-79
2022/07/29 10:30:51;;;;;;;8.85;4.60;;;;;;;;;;5044555;28;20036;-79
2022/07/29 10:33:41;;;;;;;5.57;3.78;;;;;;;;;;5042699;28;20064;-78
2022/07/29 10:36:32;;;;;;;7.40;4.10;;;;;;;;;;5025303;28;20021;-78
2022/07/29 10:39:21;;;;;;;6.88;2.78;;;;;;;;;;5042419;28;20058;-79
2022/07/29 10:42:01;;;;;;;5.07;2.28;;;;;;;;;;5040681;28;20390;-79
2022/07/29 10:44:27;;;;;;;3.58;1.90;;;;;;;;;;5022841;28;20027;-78
2022/07/29 10:46:53;;;;;;;3.95;2.10;;;;;;;;;;5040520;28;20088;-79
2022/07/29 10:49:25;;;;;;;5.15;2.10;;;;;;;;;;5039491;28;20025;-77
2022/07/29 10:51:52;;;;;;;3.10;1.90;;;;;;;;;;5041832;28;20025;-77
2022/07/29 10:54:19;;;;;;;7.18;2.28;;;;;;;;;;5043021;28;20048;-78
2022/07/29 10:56:44;;;;;;;5.03;1.83;;;;;;;;;;5041029;28;20029;-76
2022/07/29 10:59:19;;;;;;;3.88;1.70;;;;;;;;;;5040104;28;20033;-78
2022/07/29 11:01:44;;;;;;;4.22;1.85;;;;;;;;;;5040735;28;20032;-78
2022/07/29 11:04:09;;;;;;;3.90;1.83;;;;;;;;;;5040587;28;20429;-78
2022/07/29 11:07:07;;;;;;;2.88;1.65;;;;;;;;;;5038774;28;20371;-78
2022/07/29 11:09:33;;;;;;;2.40;1.55;;;;;;;;;;5040565;28;20053;-78
2022/07/29 11:11:58;;;;;;;5.22;1.90;;;;;;;;;;5040395;28;20029;-79
2022/07/29 11:14:51;;;;;;;4.23;2.20;;;;;;;;;;5041613;28;20025;-79
2022/07/29 11:17:17;;;;;;;11.60;1.90;;;;;;;;;;5040563;28;20601;-78
2022/07/29 11:19:42;;;;;;;2.40;1.52;;;;;;;;;;5040008;28;20338;-77
2022/07/29 11:22:09;;;;;;;5.03;1.75;;;;;;;;;;5020739;28;20394;-78
2022/07/29 11:24:35;;;;;;;3.28;1.60;;;;;;;;;;5038915;28;20021;-77
2022/07/29 11:27:06;;;;;;;4.25;2.00;;;;;;;;;;5038379;28;20109;-78
2022/07/29 11:29:32;;;;;;;1.98;1.60;;;;;;;;;;5038925;28;20057;-78
2022/07/29 11:32:10;;;;;;;2.78;1.80;;;;;;;;;;5021670;28;20495;-79
2022/07/29 11:34:40;;;;;;;4.80;2.10;;;;;;;;;;5021906;28;20031;-77
2022/07/29 11:37:08;;;;;;;5.47;2.15;;;;;;;;;;5038848;28;20479;-78
2022/07/29 11:39:42;;;;;;;4.90;2.47;;;;;;;;;;5020337;28;20049;-78
2022/07/29 11:42:16;;;;;;;3.97;2.30;;;;;;;;;;5037692;28;20036;-78
2022/07/29 11:45:08;;;;;;;5.13;1.80;;;;;;;;;;5021175;28;20041;-78
2022/07/29 11:47:37;;;;;;;7.60;2.40;;;;;;;;;;5038527;28;20478;-77
2022/07/29 11:50:05;;;;;;;3.00;2.15;;;;;;;;;;5038251;28;20033;-78
2022/07/29 11:52:37;;;;;;;10.93;2.75;;;;;;;;;;5038099;28;20033;-77
2022/07/29 11:55:05;;;;;;;10.30;2.80;;;;;;;;;;5039878;28;20023;-76
2022/07/29 11:57:31;;;;;;;7.47;2.75;;;;;;;;;;5039505;28;20032;-78
2022/07/29 11:59:57;;;;;;;5.68;2.55;;;;;;;;;;5041013;28;20052;-77
2022/07/29 12:02:22;;;;;;;6.88;2.42;;;;;;;;;;5040093;28;20040;-77
2022/07/29 12:04:53;;;;;;;7.70;2.73;;;;;;;;;;5039356;28;20022;-76
2022/07/29 12:07:26;;;;;;;7.28;2.45;;;;;;;;;;5039343;28;20739;-78
2022/07/29 12:09:53;;;;;;;12.70;2.60;;;;;;;;;;5038511;28;20025;-77
2022/07/29 12:12:19;;;;;;;4.68;2.20;;;;;;;;;;5038297;28;20387;-76
2022/07/29 12:14:47;;;;;;;4.78;2.25;;;;;;;;;;5038986;28;20033;-78
2022/07/29 12:17:29;;;;;;;4.38;2.08;;;;;;;;;;5037993;28;20108;-76
2022/07/29 12:19:55;;;;;;;5.95;2.40;;;;;;;;;;5023029;28;20406;-77
2022/07/29 12:22:29;;;;;;;6.65;2.50;;;;;;;;;;5038612;28;20021;-77
2022/07/29 12:24:55;;;;;;;5.70;2.30;;;;;;;;;;5020485;28;20025;-77
2022/07/29 12:27:20;;;;;;;4.75;2.38;;;;;;;;;;5020204;28;20061;-77
2022/07/29 12:29:59;;;;;;;4.60;2.40;;;;;;;;;;5020532;28;20021;-76
2022/07/29 12:32:31;;;;;;;4.65;2.58;;;;;;;;;;5037130;28;20262;-76
2022/07/29 12:34:57;;;;;;;3.20;2.13;;;;;;;;;;5038130;28;20028;-77
2022/07/29 12:37:22;;;;;;;5.65;2.17;;;;;;;;;;5038811;28;20037;-77
2022/07/29 12:39:49;;;;;;;4.55;2.20;;;;;;;;;;5038668;28;20026;-78
2022/07/29 12:42:18;;;;;;;6.18;2.40;;;;;;;;;;5038549;28;20056;-77
2022/07/29 12:44:46;;;;;;;3.15;1.77;;;;;;;;;;5036889;28;20029;-77
2022/07/29 12:47:11;;;;;;;4.53;2.08;;;;;;;;;;5037096;28;20036;-77
2022/07/29 12:49:36;;;;;;;6.72;2.20;;;;;;;;;;5037961;28;20256;-77
2022/07/29 12:52:32;;;;;;;3.47;2.10;;;;;;;;;;5038252;28;20437;-78
2022/07/29 12:54:58;;;;;;;4.05;2.20;;;;;;;;;;5038351;28;20179;-78
2022/07/29 12:57:23;;;;;;;4.57;2.25;;;;;;;;;;5038509;28;20489;-77
2022/07/29 13:00:10;;;;;;;3.53;2.10;;;;;;;;;;5036812;28;20022;-78
2022/07/29 13:02:37;;;;;;;2.88;2.05;;;;;;;;;;5037955;28;20030;-77
2022/07/29 13:05:03;;;;;;;3.42;2.10;;;;;;;;;;5041358;28;20033;-77
2022/07/29 13:07:31;;;;;;;3.13;2.05;;;;;;;;;;5037408;28;20025;-77
2022/07/29 13:10:18;;;;;;;4.15;2.20;;;;;;;;;;5037132;28;20039;-77
2022/07/29 13:13:04;;;;;;;4.10;2.00;;;;;;;;;;5037354;28;20031;-79
2022/07/29 13:15:29;;;;;;;5.80;2.38;;;;;;;;;;5039827;28;20033;-79
2022/07/29 13:17:55;;;;;;;4.07;2.03;;;;;;;;;;5039642;28;20021;-78
2022/07/29 13:20:24;;;;;;;7.47;2.25;;;;;;;;;;5037669;28;20033;-77
2022/07/29 13:22:49;;;;;;;4.65;2.22;;;;;;;;;;5037791;28;20025;-78
2022/07/29 13:25:24;;;;;;;7.07;2.15;;;;;;;;;;5040547;28;20105;-78
2022/07/29 13:27:49;;;;;;;4.72;2.10;;;;;;;;;;5041557;28;20056;-78
2022/07/29 13:30:18;;;;;;;7.60;2.05;;;;;;;;;;5022317;28;20395;-78
2022/07/29 13:32:43;;;;;;;8.98;2.20;;;;;;;;;;5036850;28;20040;-77
2022/07/29 13:35:08;;;;;;;3.57;2.00;;;;;;;;;;5040214;28;20017;-77
2022/07/29 13:37:37;;;;;;;5.00;1.75;;;;;;;;;;5037794;28;20025;-77
2022/07/29 13:40:04;;;;;;;5.38;1.80;;;;;;;;;;5036909;28;20031;-78
2022/07/29 13:42:29;;;;;;;6.97;2.17;;;;;;;;;;5036683;28;20104;-77
2022/07/29 13:44:54;;;;;;;5.57;2.15;;;;;;;;;;5019366;28;20435;-77
2022/07/29 13:47:20;;;;;;;4.18;1.98;;;;;;;;;;5019246;28;20025;-77
2022/07/29 13:49:46;;;;;;;6.32;2.30;;;;;;;;;;5039476;28;20029;-77
2022/07/29 13:52:11;;;;;;;4.88;2.20;;;;;;;;;;5039667;28;20416;-77
2022/07/29 13:54:38;;;;;;;2.30;1.80;;;;;;;;;;5038007;28;20021;-76
2022/07/29 13:57:04;;;;;;;8.93;2.33;;;;;;;;;;5018728;28;20278;-78
2022/07/29 13:59:29;;;;;;;4.18;2.17;;;;;;;;;;5037841;28;20021;-77
2022/07/29 14:01:54;;;;;;;4.35;2.03;;;;;;;;;;5021642;28;20021;-76
2022/07/29 14:04:21;;;;;;;4.90;2.20;;;;;;;;;;5042687;28;20022;-77
2022/07/29 14:06:46;;;;;;;5.00;2.30;;;;;;;;;;5043066;28;20025;-79
2022/07/29 14:09:11;;;;;;;5.32;2.20;;;;;;;;;;5027975;28;20356;-78
2022/07/29 14:11:38;;;;;;;4.97;2.20;;;;;;;;;;5047168;28;20029;-78
2022/07/29 14:14:03;;;;;;;5.20;2.10;;;;;;;;;;5026405;28;20027;-78
2022/07/29 14:16:28;;;;;;;2.50;2.10;;;;;;;;;;5043945;28;20463;-78
2022/07/29 14:18:54;;;;;;;3.88;2.45;;;;;;;;;;5043529;28;20026;-77
2022/07/29 14:21:19;;;;;;;3.60;2.13;;;;;;;;;;5041794;28;20048;-78
2022/07/29 14:23:44;;;;;;;4.90;2.10;;;;;;;;;;5024690;28;20026;-77
2022/07/29 14:26:10;;;;;;;3.70;2.25;;;;;;;;;;5042660;28;20060;-77
2022/07/29 14:28:35;;;;;;;3.73;2.33;;;;;;;;;;5041655;28;20127;-77
2022/07/29 14:31:00;;;;;;;4.00;2.33;;;;;;;;;;5042332;28;20259;-77
2022/07/29 14:33:25;;;;;;;3.53;2.25;;;;;;;;;;5042757;28;20028;-77
2022/07/29 14:35:51;;;;;;;8.47;2.53;;;;;;;;;;5024254;28;20025;-78
2022/07/29 14:38:16;;;;;;;11.10;2.43;;;;;;;;;;5046473;28;20255;-78
2022/07/29 14:40:41;;;;;;;10.43;2.30;;;;;;;;;;5044486;28;20690;-79
2022/07/29 14:43:06;;;;;;;4.63;2.30;;;;;;;;;;5042124;28;20426;-77